createdAt,value
2023-02-14T00:01:51.566Z,23.10
2023-02-14T00:06:56.267Z,25.63
2023-02-14T00:11:59.495Z,27.57
2023-02-14T00:17:03.416Z,25.13
2023-02-14T00:22:08.160Z,32.88
2023-02-14T00:27:11.404Z,27.25
2023-02-14T00:32:14.675Z,23.77
2023-02-14T00:37:19.487Z,27.15
2023-02-14T00:42:22.810Z,30.83
2023-02-14T00:47:26.544Z,26.75
2023-02-14T00:52:31.420Z,29.00
2023-02-14T00:57:35.201Z,23.97
2023-02-14T01:02:41.221Z,24.85
2023-02-14T01:07:46.217Z,27.40
2023-02-14T01:12:49.551Z,32.47
2023-02-14T01:17:52.928Z,30.90
2023-02-14T01:22:59.206Z,33.23
2023-02-14T01:28:02.722Z,30.67
2023-02-14T01:33:06.045Z,29.75
2023-02-14T01:38:11.396Z,28.02
2023-02-14T01:43:16.809Z,34.93
2023-02-14T01:48:24.436Z,34.08
2023-02-14T01:53:31.128Z,31.67
2023-02-14T01:58:36.643Z,37.97
2023-02-14T02:08:53.487Z,33.83
2023-02-14T02:13:57.228Z,31.92
2023-02-14T02:19:19.449Z,32.45
2023-02-14T02:24:32.910Z,35.78
2023-02-14T02:30:09.128Z,31.35
2023-02-14T02:40:50.421Z,34.28
2023-02-14T02:46:20.686Z,36.35
2023-02-14T02:51:50.043Z,36.30
2023-02-14T02:56:58.847Z,37.53
2023-02-14T03:02:08.178Z,31.95
2023-02-14T03:07:29.350Z,35.72
2023-02-14T03:13:09.703Z,33.92
2023-02-14T03:18:26.945Z,33.42
2023-02-14T03:23:33.727Z,30.27
2023-02-14T03:28:44.796Z,29.35
2023-02-14T03:33:58.099Z,25.67
2023-02-14T03:39:08.123Z,29.52
2023-02-14T03:44:19.539Z,24.48
2023-02-14T03:49:28.291Z,25.95
2023-02-14T03:54:33.815Z,27.83
2023-02-14T03:59:39.071Z,29.42
2023-02-14T04:04:46.452Z,24.77
2023-02-14T04:09:50.961Z,25.17
2023-02-14T04:14:55.640Z,26.42
2023-02-14T04:19:59.277Z,24.77
2023-02-14T04:25:03.048Z,25.88
2023-02-14T04:30:09.462Z,24.80
2023-02-14T04:35:12.995Z,23.73
2023-02-14T04:40:17.939Z,23.20
2023-02-14T04:45:23.398Z,24.23
2023-02-14T04:50:27.149Z,21.25
2023-02-14T04:55:30.659Z,22.50
2023-02-14T05:00:35.428Z,19.98
2023-02-14T05:05:38.872Z,19.97
2023-02-14T05:10:42.510Z,20.35
2023-02-14T05:15:47.954Z,20.80
2023-02-14T05:20:51.800Z,28.35
2023-02-14T05:25:55.157Z,24.08
2023-02-14T05:31:00.608Z,19.67
2023-02-14T05:41:08.153Z,18.50
2023-02-14T05:46:13.365Z,28.20
2023-02-14T05:51:17.477Z,35.42
2023-02-14T05:56:20.789Z,21.98
2023-02-14T06:01:25.625Z,21.88
2023-02-14T06:06:29.473Z,17.93
2023-02-14T06:11:32.866Z,20.63
2023-02-14T06:16:38.001Z,20.83
2023-02-14T06:21:41.680Z,20.00
2023-02-14T06:26:44.918Z,21.50
2023-02-14T06:31:49.969Z,22.75
2023-02-14T06:36:53.444Z,26.58
2023-02-14T06:41:56.817Z,19.73
2023-02-14T06:47:02.019Z,18.33
2023-02-14T06:52:06.828Z,23.00
2023-02-14T06:57:10.710Z,21.10
2023-02-14T07:02:15.407Z,20.25
2023-02-14T07:07:18.762Z,22.20
2023-02-14T07:12:22.765Z,28.70
2023-02-14T07:17:27.968Z,24.60
2023-02-14T07:22:31.830Z,22.95
2023-02-14T07:27:35.548Z,20.45
2023-02-14T07:32:41.421Z,24.27
2023-02-14T07:37:45.200Z,23.75
2023-02-14T07:42:55.614Z,29.85
2023-02-14T07:48:02.151Z,19.33
2023-02-14T07:53:06.019Z,21.73
2023-02-14T07:58:09.360Z,20.60
2023-02-14T08:03:14.583Z,23.90
2023-02-14T08:08:18.419Z,25.42
2023-02-14T08:13:22.674Z,24.60
2023-02-14T08:18:28.306Z,21.05
2023-02-14T08:28:35.833Z,19.75
2023-02-14T08:33:40.896Z,22.50
2023-02-14T08:38:45.552Z,19.50
2023-02-14T08:43:49.357Z,21.92
2023-02-14T08:48:55.023Z,17.38
2023-02-14T08:59:02.322Z,18.98
2023-02-14T09:04:07.056Z,22.23
2023-02-14T09:09:11.544Z,19.63
2023-02-14T09:14:16.301Z,27.88
2023-02-14T09:19:21.528Z,22.50
2023-02-14T09:24:25.064Z,26.95
2023-02-14T09:29:29.565Z,18.77
2023-02-14T09:34:35.366Z,22.90
2023-02-14T09:39:38.695Z,17.83
2023-02-14T09:44:46.710Z,26.52
2023-02-14T09:49:53.186Z,23.13
2023-02-14T09:54:59.359Z,23.88
2023-02-14T10:00:14.720Z,23.88
2023-02-14T10:05:23.839Z,26.00
2023-02-14T10:10:30.942Z,25.95
2023-02-14T10:15:39.457Z,24.77
2023-02-14T10:20:46.963Z,25.55
2023-02-14T10:25:56.313Z,23.10
2023-02-14T10:31:13.899Z,24.25
2023-02-14T10:36:30.674Z,25.33
2023-02-14T10:41:42.896Z,19.88
2023-02-14T10:46:53.181Z,20.08
2023-02-14T10:52:05.822Z,21.38
2023-02-14T10:57:15.566Z,23.48
2023-02-14T11:02:22.439Z,21.98
2023-02-14T11:07:28.065Z,20.50
2023-02-14T11:17:38.750Z,18.67
2023-02-14T11:22:43.517Z,20.00
2023-02-14T11:27:50.635Z,20.10
2023-02-14T11:32:57.203Z,20.55
2023-02-14T11:38:03.293Z,19.73
2023-02-14T11:43:21.445Z,27.00
2023-02-14T11:48:38.267Z,20.77
2023-02-14T11:53:50.673Z,22.42
2023-02-14T11:58:57.861Z,21.90
2023-02-14T12:04:05.586Z,16.65
2023-02-14T12:09:27.821Z,19.08
2023-02-14T12:14:33.299Z,17.63
2023-02-14T12:24:51.175Z,19.73
2023-02-14T12:30:00.790Z,16.70
2023-02-14T12:35:15.127Z,18.35
2023-02-14T12:40:27.266Z,15.20
2023-02-14T12:45:43.596Z,14.32
2023-02-14T12:50:50.653Z,15.10
2023-02-14T12:56:06.628Z,19.30
2023-02-14T13:01:38.903Z,14.20
2023-02-14T13:06:48.797Z,24.10
2023-02-14T13:12:07.816Z,15.38
2023-02-14T13:17:20.493Z,16.08
2023-02-14T13:22:26.641Z,18.35
2023-02-14T13:27:35.625Z,16.42
2023-02-14T13:32:42.575Z,15.45
2023-02-14T13:37:51.171Z,16.42
2023-02-14T13:42:59.684Z,15.73
2023-02-14T13:48:08.144Z,20.10
2023-02-14T13:53:13.569Z,15.23
2023-02-14T13:58:21.832Z,23.00
2023-02-14T14:03:56.476Z,19.85
2023-02-14T14:08:59.805Z,21.70
2023-02-14T14:14:05.413Z,22.67
2023-02-14T14:24:33.933Z,22.75
2023-02-14T14:29:41.320Z,21.15
2023-02-14T14:34:50.832Z,20.75
2023-02-14T14:39:57.481Z,18.48
2023-02-14T14:45:05.029Z,20.55
2023-02-14T14:50:10.792Z,19.30
2023-02-14T14:55:22.822Z,20.98
2023-02-14T15:00:30.418Z,17.95
2023-02-14T15:05:37.356Z,18.15
2023-02-14T15:10:41.382Z,19.80
2023-02-14T15:15:52.215Z,21.85
2023-02-14T15:20:56.262Z,19.10
2023-02-14T15:25:59.729Z,19.85
2023-02-14T15:31:06.918Z,18.92
2023-02-14T15:36:19.097Z,20.00
2023-02-14T15:41:25.386Z,22.75
2023-02-14T15:46:35.523Z,20.42
2023-02-14T15:51:40.553Z,24.85
2023-02-14T15:56:45.694Z,23.00
2023-02-14T16:01:56.952Z,19.27
2023-02-14T16:07:21.490Z,20.38
2023-02-14T16:12:31.823Z,22.83
2023-02-14T16:17:37.300Z,25.77
2023-02-14T16:22:40.661Z,23.92
2023-02-14T16:27:43.990Z,24.65
2023-02-14T16:32:53.757Z,23.13
2023-02-14T16:37:57.150Z,24.13
2023-02-14T16:43:00.850Z,22.25
2023-02-14T16:48:06.349Z,30.48
2023-02-14T16:53:17.193Z,25.33
2023-02-14T16:58:21.092Z,24.80
2023-02-14T17:03:25.721Z,27.35
2023-02-14T17:08:29.670Z,26.95
2023-02-14T17:13:35.910Z,39.90
2023-02-14T17:18:42.139Z,31.25
2023-02-14T17:23:45.332Z,25.75
2023-02-14T17:28:48.651Z,25.98
2023-02-14T17:33:53.239Z,43.35
2023-02-14T17:38:56.576Z,29.70
2023-02-14T17:44:00.912Z,32.08
2023-02-14T17:49:06.741Z,28.17
2023-02-14T17:54:09.974Z,35.03
2023-02-14T17:59:13.278Z,27.83
2023-02-14T18:04:18.022Z,27.95
2023-02-14T18:09:22.201Z,34.35
2023-02-14T18:14:25.821Z,36.72
2023-02-14T18:19:30.711Z,30.52
2023-02-14T18:24:34.098Z,28.60
2023-02-14T18:29:39.345Z,27.45
2023-02-14T18:34:44.003Z,39.67
2023-02-14T18:39:47.377Z,33.27
2023-02-14T18:44:50.544Z,34.05
2023-02-14T18:49:55.228Z,33.97
2023-02-14T18:54:59.444Z,37.07
2023-02-14T19:00:06.848Z,34.03
2023-02-14T19:05:11.853Z,39.60
2023-02-14T19:10:15.052Z,35.93
2023-02-14T19:15:19.146Z,42.53
2023-02-14T19:20:23.828Z,46.42
2023-02-14T19:25:29.471Z,46.47
2023-02-14T19:35:37.585Z,43.97
2023-02-14T19:40:45.195Z,41.95
2023-02-14T19:45:48.991Z,39.95
2023-02-14T19:50:55.226Z,39.25
2023-02-14T19:55:58.749Z,36.95
2023-02-14T20:01:02.809Z,39.72
2023-02-14T20:06:08.721Z,38.80
2023-02-14T20:11:25.917Z,40.63
2023-02-14T20:16:33.117Z,41.25
2023-02-14T20:21:37.827Z,38.60
2023-02-14T20:26:41.694Z,45.50
2023-02-14T20:31:48.266Z,41.28
2023-02-14T20:36:55.603Z,42.67
2023-02-14T20:41:59.354Z,42.92
2023-02-14T20:47:02.571Z,45.75
2023-02-14T20:52:07.293Z,39.65
2023-02-14T20:57:10.526Z,40.33
2023-02-14T21:02:13.921Z,46.47
2023-02-14T21:07:18.510Z,44.90
2023-02-14T21:12:21.771Z,40.83
2023-02-14T21:17:25.012Z,46.00
2023-02-14T21:22:29.602Z,38.75
2023-02-14T21:27:33.486Z,45.33
2023-02-14T21:32:36.810Z,40.03
2023-02-14T21:37:41.970Z,38.35
2023-02-14T21:42:46.423Z,45.72
2023-02-14T21:48:09.682Z,40.55
2023-02-14T21:53:14.367Z,46.05
2023-02-14T21:58:17.599Z,40.57
2023-02-14T22:03:21.273Z,35.72
2023-02-14T22:08:25.900Z,42.25
2023-02-14T22:13:29.636Z,43.10
2023-02-14T22:18:33.530Z,47.22
2023-02-14T22:23:39.601Z,51.53
2023-02-14T22:28:43.881Z,51.78
2023-02-14T22:33:48.287Z,42.22
2023-02-14T22:38:53.653Z,40.90
2023-02-14T22:43:57.379Z,47.70
2023-02-14T22:49:00.943Z,39.97
2023-02-14T22:54:08.182Z,42.63
2023-02-14T22:59:16.834Z,44.22
2023-02-14T23:04:21.878Z,48.83
2023-02-14T23:09:26.576Z,43.55
2023-02-14T23:14:47.034Z,42.67
2023-02-14T23:20:08.076Z,41.03
2023-02-14T23:25:13.947Z,40.55
2023-02-14T23:30:19.397Z,41.60
2023-02-14T23:35:22.692Z,46.30
2023-02-14T23:40:27.366Z,43.72
2023-02-14T23:45:36.523Z,42.47
2023-02-14T23:50:39.924Z,49.85
2023-02-14T23:55:44.672Z,36.05
